sensor_id;sensor_type;location;lat;lon;timestamp;P1;durP1;ratioP1;P2;durP2;ratioP2
55009;SDS011;40903;51.638;7.528;2023-06-14T00:01:34;3.83;;;3.40;;
55009;SDS011;40903;51.638;7.528;2023-06-14T00:04:00;6.03;;;4.17;;
55009;SDS011;40903;51.638;7.528;2023-06-14T00:06:26;7.37;;;3.97;;
55009;SDS011;40903;51.638;7.528;2023-06-14T00:08:53;5.00;;;3.57;;
55009;SDS011;40903;51.638;7.528;2023-06-14T00:11:19;4.57;;;3.43;;
55009;SDS011;40903;51.638;7.528;2023-06-14T00:13:45;4.13;;;3.73;;
55009;SDS011;40903;51.638;7.528;2023-06-14T00:16:10;4.87;;;3.93;;
55009;SDS011;40903;51.638;7.528;2023-06-14T00:18:36;6.97;;;3.63;;
55009;SDS011;40903;51.638;7.528;2023-06-14T00:21:01;6.47;;;3.50;;
55009;SDS011;40903;51.638;7.528;2023-06-14T00:23:27;5.40;;;3.17;;
55009;SDS011;40903;51.638;7.528;2023-06-14T00:25:52;5.10;;;3.20;;
55009;SDS011;40903;51.638;7.528;2023-06-14T00:28:17;5.17;;;3.23;;
55009;SDS011;40903;51.638;7.528;2023-06-14T00:30:43;5.30;;;3.27;;
55009;SDS011;40903;51.638;7.528;2023-06-14T00:33:11;4.60;;;3.50;;
55009;SDS011;40903;51.638;7.528;2023-06-14T00:35:36;5.07;;;3.13;;
55009;SDS011;40903;51.638;7.528;2023-06-14T00:38:02;7.77;;;3.30;;
55009;SDS011;40903;51.638;7.528;2023-06-14T00:40:27;4.93;;;3.37;;
55009;SDS011;40903;51.638;7.528;2023-06-14T00:42:52;7.93;;;3.60;;
55009;SDS011;40903;51.638;7.528;2023-06-14T00:45:18;5.83;;;3.60;;
55009;SDS011;40903;51.638;7.528;2023-06-14T00:47:43;8.60;;;3.70;;
55009;SDS011;40903;51.638;7.528;2023-06-14T00:50:10;5.80;;;3.60;;
55009;SDS011;40903;51.638;7.528;2023-06-14T00:52:36;5.03;;;3.27;;
55009;SDS011;40903;51.638;7.528;2023-06-14T00:55:02;6.00;;;3.57;;
55009;SDS011;40903;51.638;7.528;2023-06-14T00:57:27;4.23;;;3.17;;
55009;SDS011;40903;51.638;7.528;2023-06-14T00:59:54;5.97;;;3.27;;
55009;SDS011;40903;51.638;7.528;2023-06-14T01:02:20;3.37;;;2.83;;
55009;SDS011;40903;51.638;7.528;2023-06-14T01:04:46;3.57;;;3.10;;
55009;SDS011;40903;51.638;7.528;2023-06-14T01:13:10;3.20;;;2.90;;
55009;SDS011;40903;51.638;7.528;2023-06-14T01:15:45;4.57;;;3.27;;
55009;SDS011;40903;51.638;7.528;2023-06-14T01:18:11;3.30;;;2.97;;
55009;SDS011;40903;51.638;7.528;2023-06-14T01:20:42;5.50;;;3.23;;
55009;SDS011;40903;51.638;7.528;2023-06-14T01:23:19;5.80;;;3.10;;
55009;SDS011;40903;51.638;7.528;2023-06-14T01:25:45;5.93;;;3.40;;
55009;SDS011;40903;51.638;7.528;2023-06-14T01:28:12;3.87;;;3.23;;
55009;SDS011;40903;51.638;7.528;2023-06-14T01:30:40;5.67;;;3.33;;
55009;SDS011;40903;51.638;7.528;2023-06-14T01:33:13;5.07;;;3.10;;
55009;SDS011;40903;51.638;7.528;2023-06-14T01:35:41;8.07;;;2.93;;
55009;SDS011;40903;51.638;7.528;2023-06-14T01:38:08;5.53;;;2.93;;
55009;SDS011;40903;51.638;7.528;2023-06-14T01:40:37;3.37;;;2.97;;
55009;SDS011;40903;51.638;7.528;2023-06-14T01:43:04;3.70;;;2.80;;
55009;SDS011;40903;51.638;7.528;2023-06-14T01:45:30;3.60;;;2.80;;
55009;SDS011;40903;51.638;7.528;2023-06-14T01:47:57;3.23;;;2.77;;
55009;SDS011;40903;51.638;7.528;2023-06-14T01:50:23;6.07;;;2.90;;
55009;SDS011;40903;51.638;7.528;2023-06-14T01:52:48;3.70;;;3.10;;
55009;SDS011;40903;51.638;7.528;2023-06-14T01:55:13;7.17;;;3.00;;
55009;SDS011;40903;51.638;7.528;2023-06-14T01:57:39;4.30;;;3.00;;
55009;SDS011;40903;51.638;7.528;2023-06-14T02:00:05;4.57;;;3.07;;
55009;SDS011;40903;51.638;7.528;2023-06-14T02:02:37;5.43;;;3.00;;
55009;SDS011;40903;51.638;7.528;2023-06-14T02:05:03;5.03;;;3.03;;
55009;SDS011;40903;51.638;7.528;2023-06-14T02:07:28;3.40;;;3.00;;
55009;SDS011;40903;51.638;7.528;2023-06-14T02:09:54;4.17;;;2.83;;
55009;SDS011;40903;51.638;7.528;2023-06-14T02:12:19;7.17;;;3.60;;
55009;SDS011;40903;51.638;7.528;2023-06-14T02:14:44;4.73;;;2.93;;
55009;SDS011;40903;51.638;7.528;2023-06-14T02:17:10;6.20;;;3.20;;
55009;SDS011;40903;51.638;7.528;2023-06-14T02:19:35;3.50;;;2.90;;
55009;SDS011;40903;51.638;7.528;2023-06-14T02:22:00;7.00;;;3.20;;
55009;SDS011;40903;51.638;7.528;2023-06-14T02:24:26;5.90;;;3.30;;
55009;SDS011;40903;51.638;7.528;2023-06-14T02:26:51;6.90;;;3.47;;
55009;SDS011;40903;51.638;7.528;2023-06-14T02:29:16;4.27;;;2.70;;
55009;SDS011;40903;51.638;7.528;2023-06-14T02:31:42;6.63;;;3.20;;
55009;SDS011;40903;51.638;7.528;2023-06-14T02:34:07;4.50;;;3.33;;
55009;SDS011;40903;51.638;7.528;2023-06-14T02:36:35;4.77;;;3.40;;
55009;SDS011;40903;51.638;7.528;2023-06-14T02:39:06;6.00;;;3.00;;
55009;SDS011;40903;51.638;7.528;2023-06-14T02:41:31;5.77;;;3.13;;
55009;SDS011;40903;51.638;7.528;2023-06-14T02:43:57;6.87;;;3.40;;
55009;SDS011;40903;51.638;7.528;2023-06-14T02:46:23;4.60;;;3.27;;
55009;SDS011;40903;51.638;7.528;2023-06-14T02:48:49;3.83;;;3.50;;
55009;SDS011;40903;51.638;7.528;2023-06-14T02:51:14;5.57;;;3.03;;
55009;SDS011;40903;51.638;7.528;2023-06-14T02:53:39;6.70;;;3.53;;
55009;SDS011;40903;51.638;7.528;2023-06-14T02:56:05;3.33;;;3.03;;
55009;SDS011;40903;51.638;7.528;2023-06-14T02:58:30;4.87;;;2.87;;
55009;SDS011;40903;51.638;7.528;2023-06-14T03:00:56;5.17;;;2.83;;
55009;SDS011;40903;51.638;7.528;2023-06-14T03:03:21;3.50;;;2.70;;
55009;SDS011;40903;51.638;7.528;2023-06-14T03:05:49;3.63;;;2.67;;
55009;SDS011;40903;51.638;7.528;2023-06-14T03:08:16;4.80;;;3.00;;
55009;SDS011;40903;51.638;7.528;2023-06-14T03:10:45;4.50;;;3.00;;
55009;SDS011;40903;51.638;7.528;2023-06-14T03:13:11;5.87;;;2.90;;
55009;SDS011;40903;51.638;7.528;2023-06-14T03:15:37;4.70;;;3.13;;
55009;SDS011;40903;51.638;7.528;2023-06-14T03:18:03;3.43;;;3.00;;
55009;SDS011;40903;51.638;7.528;2023-06-14T03:20:29;5.77;;;3.20;;
55009;SDS011;40903;51.638;7.528;2023-06-14T03:22:58;6.83;;;3.27;;
55009;SDS011;40903;51.638;7.528;2023-06-14T03:25:24;5.20;;;3.40;;
55009;SDS011;40903;51.638;7.528;2023-06-14T03:27:50;5.17;;;2.90;;
55009;SDS011;40903;51.638;7.528;2023-06-14T03:30:16;9.23;;;3.73;;
55009;SDS011;40903;51.638;7.528;2023-06-14T03:32:41;4.30;;;2.73;;
55009;SDS011;40903;51.638;7.528;2023-06-14T03:35:07;8.13;;;3.03;;
55009;SDS011;40903;51.638;7.528;2023-06-14T03:37:32;3.90;;;3.00;;
55009;SDS011;40903;51.638;7.528;2023-06-14T03:39:58;5.40;;;3.20;;
55009;SDS011;40903;51.638;7.528;2023-06-14T03:42:23;5.07;;;3.03;;
55009;SDS011;40903;51.638;7.528;2023-06-14T03:44:48;4.93;;;2.87;;
55009;SDS011;40903;51.638;7.528;2023-06-14T03:47:13;6.47;;;2.60;;
55009;SDS011;40903;51.638;7.528;2023-06-14T03:49:40;5.53;;;2.83;;
55009;SDS011;40903;51.638;7.528;2023-06-14T03:52:05;4.13;;;3.17;;
55009;SDS011;40903;51.638;7.528;2023-06-14T03:54:31;3.10;;;2.80;;
55009;SDS011;40903;51.638;7.528;2023-06-14T03:56:57;3.40;;;3.03;;
55009;SDS011;40903;51.638;7.528;2023-06-14T03:59:23;5.83;;;3.10;;
55009;SDS011;40903;51.638;7.528;2023-06-14T04:01:49;4.90;;;3.00;;
55009;SDS011;40903;51.638;7.528;2023-06-14T04:04:14;5.63;;;3.13;;
55009;SDS011;40903;51.638;7.528;2023-06-14T04:06:41;4.10;;;2.87;;
55009;SDS011;40903;51.638;7.528;2023-06-14T04:09:07;4.33;;;2.90;;
55009;SDS011;40903;51.638;7.528;2023-06-14T04:11:33;5.50;;;3.20;;
55009;SDS011;40903;51.638;7.528;2023-06-14T04:13:58;4.07;;;3.30;;
55009;SDS011;40903;51.638;7.528;2023-06-14T04:16:23;4.10;;;3.27;;
55009;SDS011;40903;51.638;7.528;2023-06-14T04:18:49;3.70;;;3.23;;
55009;SDS011;40903;51.638;7.528;2023-06-14T04:21:17;7.70;;;3.33;;
55009;SDS011;40903;51.638;7.528;2023-06-14T04:23:42;5.27;;;3.07;;
55009;SDS011;40903;51.638;7.528;2023-06-14T04:26:08;4.33;;;3.00;;
55009;SDS011;40903;51.638;7.528;2023-06-14T04:28:35;3.73;;;3.10;;
55009;SDS011;40903;51.638;7.528;2023-06-14T04:31:05;4.80;;;2.50;;
55009;SDS011;40903;51.638;7.528;2023-06-14T04:33:33;3.70;;;2.77;;
55009;SDS011;40903;51.638;7.528;2023-06-14T04:36:07;5.07;;;3.20;;
55009;SDS011;40903;51.638;7.528;2023-06-14T04:38:33;4.27;;;3.00;;
55009;SDS011;40903;51.638;7.528;2023-06-14T04:40:59;3.90;;;2.80;;
55009;SDS011;40903;51.638;7.528;2023-06-14T04:43:26;5.80;;;2.90;;
55009;SDS011;40903;51.638;7.528;2023-06-14T04:45:52;3.20;;;2.67;;
55009;SDS011;40903;51.638;7.528;2023-06-14T04:48:19;3.80;;;2.60;;
55009;SDS011;40903;51.638;7.528;2023-06-14T04:50:45;2.63;;;2.43;;
55009;SDS011;40903;51.638;7.528;2023-06-14T04:53:11;3.97;;;2.90;;
55009;SDS011;40903;51.638;7.528;2023-06-14T04:55:36;5.93;;;3.27;;
55009;SDS011;40903;51.638;7.528;2023-06-14T04:58:02;5.57;;;3.03;;
55009;SDS011;40903;51.638;7.528;2023-06-14T05:00:28;8.60;;;2.90;;
55009;SDS011;40903;51.638;7.528;2023-06-14T05:02:55;8.13;;;2.90;;
55009;SDS011;40903;51.638;7.528;2023-06-14T05:05:21;7.63;;;3.20;;
55009;SDS011;40903;51.638;7.528;2023-06-14T05:07:47;4.70;;;2.83;;
55009;SDS011;40903;51.638;7.528;2023-06-14T05:10:12;5.30;;;3.07;;
55009;SDS011;40903;51.638;7.528;2023-06-14T05:12:38;4.27;;;2.67;;
55009;SDS011;40903;51.638;7.528;2023-06-14T05:15:03;4.77;;;3.00;;
55009;SDS011;40903;51.638;7.528;2023-06-14T05:17:29;4.97;;;3.10;;
55009;SDS011;40903;51.638;7.528;2023-06-14T05:19:55;5.83;;;3.23;;
55009;SDS011;40903;51.638;7.528;2023-06-14T05:22:23;4.20;;;3.20;;
55009;SDS011;40903;51.638;7.528;2023-06-14T05:24:48;4.43;;;3.23;;
55009;SDS011;40903;51.638;7.528;2023-06-14T05:27:16;4.47;;;2.80;;
55009;SDS011;40903;51.638;7.528;2023-06-14T05:29:41;3.23;;;2.70;;
55009;SDS011;40903;51.638;7.528;2023-06-14T05:32:07;6.23;;;2.90;;
55009;SDS011;40903;51.638;7.528;2023-06-14T05:34:32;2.93;;;2.73;;
55009;SDS011;40903;51.638;7.528;2023-06-14T05:36:58;5.53;;;3.33;;
55009;SDS011;40903;51.638;7.528;2023-06-14T05:39:23;4.00;;;3.07;;
55009;SDS011;40903;51.638;7.528;2023-06-14T05:41:49;5.70;;;3.07;;
55009;SDS011;40903;51.638;7.528;2023-06-14T05:44:14;6.07;;;3.00;;
55009;SDS011;40903;51.638;7.528;2023-06-14T05:46:40;5.60;;;2.80;;
55009;SDS011;40903;51.638;7.528;2023-06-14T05:49:05;4.13;;;2.93;;
55009;SDS011;40903;51.638;7.528;2023-06-14T05:51:31;3.90;;;2.90;;
55009;SDS011;40903;51.638;7.528;2023-06-14T05:53:56;5.63;;;2.77;;
55009;SDS011;40903;51.638;7.528;2023-06-14T05:56:21;4.43;;;2.77;;
55009;SDS011;40903;51.638;7.528;2023-06-14T05:58:47;6.00;;;3.20;;
55009;SDS011;40903;51.638;7.528;2023-06-14T06:01:13;4.70;;;2.70;;
55009;SDS011;40903;51.638;7.528;2023-06-14T06:03:38;3.17;;;2.30;;
55009;SDS011;40903;51.638;7.528;2023-06-14T06:06:04;2.77;;;2.50;;
55009;SDS011;40903;51.638;7.528;2023-06-14T06:08:29;4.50;;;2.73;;
55009;SDS011;40903;51.638;7.528;2023-06-14T06:10:56;3.90;;;2.70;;
55009;SDS011;40903;51.638;7.528;2023-06-14T06:13:21;4.77;;;2.70;;
55009;SDS011;40903;51.638;7.528;2023-06-14T06:15:47;3.90;;;2.77;;
55009;SDS011;40903;51.638;7.528;2023-06-14T06:18:12;5.83;;;2.67;;
55009;SDS011;40903;51.638;7.528;2023-06-14T06:20:37;6.17;;;2.77;;
55009;SDS011;40903;51.638;7.528;2023-06-14T06:23:03;8.37;;;3.13;;
55009;SDS011;40903;51.638;7.528;2023-06-14T06:25:28;4.20;;;2.63;;
55009;SDS011;40903;51.638;7.528;2023-06-14T07:01:52;3.10;;;2.60;;
55009;SDS011;40903;51.638;7.528;2023-06-14T07:04:17;6.97;;;2.80;;
55009;SDS011;40903;51.638;7.528;2023-06-14T07:06:43;4.50;;;3.03;;
55009;SDS011;40903;51.638;7.528;2023-06-14T07:09:08;3.67;;;2.73;;
55009;SDS011;40903;51.638;7.528;2023-06-14T07:11:39;2.57;;;2.37;;
55009;SDS011;40903;51.638;7.528;2023-06-14T07:14:05;5.40;;;2.53;;
55009;SDS011;40903;51.638;7.528;2023-06-14T07:16:30;6.23;;;2.37;;
55009;SDS011;40903;51.638;7.528;2023-06-14T07:18:56;3.23;;;2.80;;
55009;SDS011;40903;51.638;7.528;2023-06-14T07:21:21;7.10;;;2.60;;
55009;SDS011;40903;51.638;7.528;2023-06-14T07:23:46;3.97;;;2.57;;
55009;SDS011;40903;51.638;7.528;2023-06-14T07:26:12;6.37;;;2.00;;
55009;SDS011;40903;51.638;7.528;2023-06-14T07:28:37;3.90;;;2.13;;
55009;SDS011;40903;51.638;7.528;2023-06-14T07:31:02;6.30;;;2.30;;
55009;SDS011;40903;51.638;7.528;2023-06-14T07:33:28;3.33;;;2.40;;
55009;SDS011;40903;51.638;7.528;2023-06-14T07:35:53;3.60;;;2.60;;
55009;SDS011;40903;51.638;7.528;2023-06-14T07:38:18;5.03;;;2.13;;
55009;SDS011;40903;51.638;7.528;2023-06-14T07:40:44;4.37;;;2.43;;
55009;SDS011;40903;51.638;7.528;2023-06-14T07:43:09;4.07;;;2.00;;
55009;SDS011;40903;51.638;7.528;2023-06-14T07:45:35;3.13;;;1.70;;
55009;SDS011;40903;51.638;7.528;2023-06-14T07:48:00;1.67;;;1.57;;
55009;SDS011;40903;51.638;7.528;2023-06-14T07:50:26;2.00;;;1.80;;
55009;SDS011;40903;51.638;7.528;2023-06-14T07:52:51;1.70;;;1.60;;
55009;SDS011;40903;51.638;7.528;2023-06-14T07:55:16;2.13;;;1.50;;
55009;SDS011;40903;51.638;7.528;2023-06-14T07:57:42;2.53;;;1.43;;
55009;SDS011;40903;51.638;7.528;2023-06-14T08:00:09;1.73;;;1.43;;
55009;SDS011;40903;51.638;7.528;2023-06-14T08:02:40;1.90;;;1.47;;
55009;SDS011;40903;51.638;7.528;2023-06-14T08:05:05;1.73;;;1.63;;
55009;SDS011;40903;51.638;7.528;2023-06-14T08:07:31;6.40;;;1.60;;
55009;SDS011;40903;51.638;7.528;2023-06-14T08:09:56;2.97;;;1.40;;
55009;SDS011;40903;51.638;7.528;2023-06-14T08:12:21;4.20;;;1.53;;
55009;SDS011;40903;51.638;7.528;2023-06-14T08:14:47;2.03;;;1.20;;
55009;SDS011;40903;51.638;7.528;2023-06-14T08:17:12;6.20;;;1.40;;
55009;SDS011;40903;51.638;7.528;2023-06-14T08:19:38;2.57;;;1.10;;
55009;SDS011;40903;51.638;7.528;2023-06-14T08:22:03;2.23;;;1.50;;
55009;SDS011;40903;51.638;7.528;2023-06-14T08:24:29;4.10;;;1.00;;
55009;SDS011;40903;51.638;7.528;2023-06-14T08:26:54;1.90;;;1.20;;
55009;SDS011;40903;51.638;7.528;2023-06-14T08:29:19;2.40;;;1.50;;
55009;SDS011;40903;51.638;7.528;2023-06-14T08:31:45;4.90;;;1.40;;
55009;SDS011;40903;51.638;7.528;2023-06-14T08:34:12;1.30;;;1.20;;
55009;SDS011;40903;51.638;7.528;2023-06-14T08:36:37;2.47;;;1.23;;
55009;SDS011;40903;51.638;7.528;2023-06-14T08:39:02;1.30;;;1.20;;
55009;SDS011;40903;51.638;7.528;2023-06-14T08:41:28;1.37;;;1.27;;
55009;SDS011;40903;51.638;7.528;2023-06-14T08:43:54;1.83;;;1.63;;
55009;SDS011;40903;51.638;7.528;2023-06-14T08:46:20;3.30;;;1.20;;
55009;SDS011;40903;51.638;7.528;2023-06-14T08:48:49;1.20;;;1.10;;
55009;SDS011;40903;51.638;7.528;2023-06-14T08:51:18;1.53;;;1.17;;
55009;SDS011;40903;51.638;7.528;2023-06-14T08:53:44;2.87;;;1.30;;
55009;SDS011;40903;51.638;7.528;2023-06-14T08:56:11;1.73;;;0.97;;
55009;SDS011;40903;51.638;7.528;2023-06-14T08:58:41;0.80;;;0.80;;
55009;SDS011;40903;51.638;7.528;2023-06-14T09:01:10;2.40;;;1.00;;
55009;SDS011;40903;51.638;7.528;2023-06-14T09:20:42;1.87;;;1.27;;
55009;SDS011;40903;51.638;7.528;2023-06-14T09:23:07;1.17;;;1.10;;
55009;SDS011;40903;51.638;7.528;2023-06-14T09:25:41;2.60;;;1.10;;
55009;SDS011;40903;51.638;7.528;2023-06-14T09:28:07;1.57;;;1.00;;
55009;SDS011;40903;51.638;7.528;2023-06-14T09:47:36;4.10;;;1.20;;
55009;SDS011;40903;51.638;7.528;2023-06-14T11:05:10;3.40;;;1.75;;
55009;SDS011;40903;51.638;7.528;2023-06-14T11:08:04;2.87;;;1.60;;
55009;SDS011;40903;51.638;7.528;2023-06-14T11:10:48;2.70;;;1.93;;
55009;SDS011;40903;51.638;7.528;2023-06-14T11:13:15;2.10;;;1.60;;
55009;SDS011;40903;51.638;7.528;2023-06-14T11:15:45;1.87;;;1.70;;
55009;SDS011;40903;51.638;7.528;2023-06-14T11:18:12;2.67;;;1.77;;
55009;SDS011;40903;51.638;7.528;2023-06-14T11:20:39;2.37;;;1.53;;
55009;SDS011;40903;51.638;7.528;2023-06-14T11:23:05;2.60;;;2.00;;
55009;SDS011;40903;51.638;7.528;2023-06-14T11:25:30;4.17;;;1.77;;
55009;SDS011;40903;51.638;7.528;2023-06-14T11:27:56;1.90;;;1.80;;
55009;SDS011;40903;51.638;7.528;2023-06-14T11:30:22;4.23;;;2.20;;
55009;SDS011;40903;51.638;7.528;2023-06-14T11:32:48;2.60;;;1.80;;
55009;SDS011;40903;51.638;7.528;2023-06-14T11:35:15;3.27;;;2.03;;
55009;SDS011;40903;51.638;7.528;2023-06-14T11:37:42;4.70;;;1.80;;
55009;SDS011;40903;51.638;7.528;2023-06-14T11:40:09;1.90;;;1.80;;
55009;SDS011;40903;51.638;7.528;2023-06-14T11:42:37;4.87;;;1.77;;
55009;SDS011;40903;51.638;7.528;2023-06-14T11:45:03;3.87;;;1.80;;
55009;SDS011;40903;51.638;7.528;2023-06-14T11:47:32;5.43;;;1.70;;
55009;SDS011;40903;51.638;7.528;2023-06-14T11:49:58;2.97;;;1.70;;
55009;SDS011;40903;51.638;7.528;2023-06-14T11:52:24;5.17;;;1.90;;
55009;SDS011;40903;51.638;7.528;2023-06-14T11:54:50;3.87;;;2.13;;
55009;SDS011;40903;51.638;7.528;2023-06-14T11:57:17;3.80;;;1.60;;
55009;SDS011;40903;51.638;7.528;2023-06-14T11:59:43;2.60;;;2.27;;
55009;SDS011;40903;51.638;7.528;2023-06-14T12:02:13;2.43;;;1.83;;
55009;SDS011;40903;51.638;7.528;2023-06-14T12:04:42;2.70;;;1.83;;
55009;SDS011;40903;51.638;7.528;2023-06-14T12:07:12;3.37;;;1.70;;
55009;SDS011;40903;51.638;7.528;2023-06-14T12:10:03;3.77;;;1.90;;
55009;SDS011;40903;51.638;7.528;2023-06-14T12:12:28;3.33;;;1.97;;
55009;SDS011;40903;51.638;7.528;2023-06-14T12:14:55;3.70;;;2.00;;
55009;SDS011;40903;51.638;7.528;2023-06-14T12:17:21;4.07;;;2.93;;
55009;SDS011;40903;51.638;7.528;2023-06-14T12:19:48;1.80;;;1.70;;
55009;SDS011;40903;51.638;7.528;2023-06-14T12:22:14;4.67;;;2.20;;
55009;SDS011;40903;51.638;7.528;2023-06-14T12:24:44;2.63;;;1.90;;
55009;SDS011;40903;51.638;7.528;2023-06-14T12:27:10;4.37;;;2.27;;
55009;SDS011;40903;51.638;7.528;2023-06-14T12:29:40;2.33;;;1.90;;
55009;SDS011;40903;51.638;7.528;2023-06-14T12:32:08;2.53;;;1.80;;
55009;SDS011;40903;51.638;7.528;2023-06-14T12:34:34;5.20;;;1.80;;
55009;SDS011;40903;51.638;7.528;2023-06-14T12:37:00;2.87;;;1.83;;
55009;SDS011;40903;51.638;7.528;2023-06-14T12:39:25;4.20;;;2.20;;
55009;SDS011;40903;51.638;7.528;2023-06-14T12:41:51;2.20;;;1.73;;
55009;SDS011;40903;51.638;7.528;2023-06-14T12:44:16;2.90;;;2.10;;
55009;SDS011;40903;51.638;7.528;2023-06-14T12:46:41;5.67;;;2.10;;
55009;SDS011;40903;51.638;7.528;2023-06-14T12:49:09;2.23;;;2.00;;
55009;SDS011;40903;51.638;7.528;2023-06-14T12:51:36;4.17;;;2.27;;
55009;SDS011;40903;51.638;7.528;2023-06-14T12:54:01;4.27;;;1.77;;
55009;SDS011;40903;51.638;7.528;2023-06-14T12:56:28;3.90;;;2.30;;
55009;SDS011;40903;51.638;7.528;2023-06-14T12:58:53;1.90;;;1.80;;
55009;SDS011;40903;51.638;7.528;2023-06-14T13:01:19;2.63;;;2.27;;
55009;SDS011;40903;51.638;7.528;2023-06-14T13:03:45;1.93;;;1.80;;
55009;SDS011;40903;51.638;7.528;2023-06-14T13:06:15;2.60;;;2.03;;
55009;SDS011;40903;51.638;7.528;2023-06-14T13:08:41;3.67;;;2.40;;
55009;SDS011;40903;51.638;7.528;2023-06-14T13:11:06;2.37;;;2.17;;
55009;SDS011;40903;51.638;7.528;2023-06-14T13:13:32;3.00;;;1.80;;
55009;SDS011;40903;51.638;7.528;2023-06-14T13:15:57;2.10;;;1.90;;
55009;SDS011;40903;51.638;7.528;2023-06-14T13:18:23;2.33;;;2.10;;
55009;SDS011;40903;51.638;7.528;2023-06-14T13:20:48;3.57;;;2.30;;
55009;SDS011;40903;51.638;7.528;2023-06-14T13:23:14;3.00;;;2.00;;
55009;SDS011;40903;51.638;7.528;2023-06-14T13:25:40;2.00;;;1.90;;
55009;SDS011;40903;51.638;7.528;2023-06-14T13:28:06;2.07;;;1.83;;
55009;SDS011;40903;51.638;7.528;2023-06-14T13:30:32;3.57;;;2.23;;
55009;SDS011;40903;51.638;7.528;2023-06-14T13:32:57;3.23;;;2.10;;
55009;SDS011;40903;51.638;7.528;2023-06-14T13:35:23;3.70;;;2.70;;
55009;SDS011;40903;51.638;7.528;2023-06-14T13:37:49;3.17;;;1.87;;
55009;SDS011;40903;51.638;7.528;2023-06-14T13:40:15;3.27;;;2.27;;
55009;SDS011;40903;51.638;7.528;2023-06-14T13:42:40;2.43;;;2.23;;
55009;SDS011;40903;51.638;7.528;2023-06-14T13:45:06;2.30;;;2.10;;
55009;SDS011;40903;51.638;7.528;2023-06-14T13:47:32;3.10;;;2.10;;
55009;SDS011;40903;51.638;7.528;2023-06-14T13:49:57;6.47;;;2.20;;
55009;SDS011;40903;51.638;7.528;2023-06-14T13:52:23;4.90;;;2.57;;
55009;SDS011;40903;51.638;7.528;2023-06-14T13:54:49;5.30;;;2.47;;
55009;SDS011;40903;51.638;7.528;2023-06-14T13:57:14;2.93;;;2.17;;
55009;SDS011;40903;51.638;7.528;2023-06-14T13:59:40;3.40;;;2.00;;
55009;SDS011;40903;51.638;7.528;2023-06-14T16:49:18;5.27;;;2.17;;
55009;SDS011;40903;51.638;7.528;2023-06-14T16:51:44;4.03;;;2.00;;
55009;SDS011;40903;51.638;7.528;2023-06-14T16:54:09;3.83;;;1.87;;
55009;SDS011;40903;51.638;7.528;2023-06-14T16:56:34;3.10;;;2.17;;
55009;SDS011;40903;51.638;7.528;2023-06-14T16:59:00;4.43;;;2.87;;
55009;SDS011;40903;51.638;7.528;2023-06-14T17:01:25;2.47;;;2.13;;
55009;SDS011;40903;51.638;7.528;2023-06-14T17:03:51;2.37;;;1.97;;
55009;SDS011;40903;51.638;7.528;2023-06-14T17:06:17;3.53;;;2.50;;
55009;SDS011;40903;51.638;7.528;2023-06-14T17:08:42;2.77;;;1.77;;
55009;SDS011;40903;51.638;7.528;2023-06-14T17:11:08;2.97;;;1.90;;
55009;SDS011;40903;51.638;7.528;2023-06-14T17:13:34;4.73;;;2.30;;
55009;SDS011;40903;51.638;7.528;2023-06-14T17:16:01;3.37;;;2.10;;
55009;SDS011;40903;51.638;7.528;2023-06-14T17:18:27;2.63;;;1.93;;
55009;SDS011;40903;51.638;7.528;2023-06-14T17:20:52;4.30;;;2.17;;
55009;SDS011;40903;51.638;7.528;2023-06-14T17:23:18;3.00;;;2.00;;
55009;SDS011;40903;51.638;7.528;2023-06-14T17:25:43;3.50;;;1.80;;
55009;SDS011;40903;51.638;7.528;2023-06-14T17:28:09;3.30;;;2.43;;
55009;SDS011;40903;51.638;7.528;2023-06-14T17:30:34;3.00;;;2.10;;
55009;SDS011;40903;51.638;7.528;2023-06-14T17:32:59;2.93;;;1.87;;
55009;SDS011;40903;51.638;7.528;2023-06-14T17:35:25;3.97;;;1.63;;
55009;SDS011;40903;51.638;7.528;2023-06-14T17:37:50;2.87;;;1.53;;
55009;SDS011;40903;51.638;7.528;2023-06-14T17:40:15;1.63;;;1.47;;
55009;SDS011;40903;51.638;7.528;2023-06-14T17:42:41;3.67;;;1.93;;
55009;SDS011;40903;51.638;7.528;2023-06-14T17:45:06;1.80;;;1.70;;
55009;SDS011;40903;51.638;7.528;2023-06-14T17:47:32;2.60;;;2.10;;
55009;SDS011;40903;51.638;7.528;2023-06-14T17:49:57;1.90;;;1.70;;
55009;SDS011;40903;51.638;7.528;2023-06-14T17:52:25;2.17;;;1.80;;
55009;SDS011;40903;51.638;7.528;2023-06-14T17:54:50;2.57;;;1.80;;
55009;SDS011;40903;51.638;7.528;2023-06-14T17:57:16;2.63;;;1.93;;
55009;SDS011;40903;51.638;7.528;2023-06-14T17:59:41;2.03;;;1.70;;
55009;SDS011;40903;51.638;7.528;2023-06-14T18:02:07;2.70;;;1.70;;
55009;SDS011;40903;51.638;7.528;2023-06-14T18:04:33;2.00;;;1.60;;
55009;SDS011;40903;51.638;7.528;2023-06-14T18:06:59;2.07;;;1.70;;
55009;SDS011;40903;51.638;7.528;2023-06-14T18:09:27;1.90;;;1.70;;
55009;SDS011;40903;51.638;7.528;2023-06-14T18:11:53;1.90;;;1.80;;
55009;SDS011;40903;51.638;7.528;2023-06-14T18:14:19;1.50;;;1.40;;
55009;SDS011;40903;51.638;7.528;2023-06-14T18:16:44;1.87;;;1.70;;
55009;SDS011;40903;51.638;7.528;2023-06-14T18:19:09;1.93;;;1.70;;
55009;SDS011;40903;51.638;7.528;2023-06-14T18:21:35;2.20;;;2.00;;
55009;SDS011;40903;51.638;7.528;2023-06-14T18:24:00;1.70;;;1.60;;
55009;SDS011;40903;51.638;7.528;2023-06-14T18:26:26;2.97;;;1.80;;
55009;SDS011;40903;51.638;7.528;2023-06-14T18:28:52;8.73;;;1.90;;
55009;SDS011;40903;51.638;7.528;2023-06-14T18:31:18;2.37;;;1.70;;
55009;SDS011;40903;51.638;7.528;2023-06-14T18:33:44;2.50;;;1.90;;
55009;SDS011;40903;51.638;7.528;2023-06-14T18:36:09;5.33;;;1.93;;
55009;SDS011;40903;51.638;7.528;2023-06-14T18:38:35;2.53;;;1.73;;
55009;SDS011;40903;51.638;7.528;2023-06-14T18:41:01;2.77;;;2.03;;
55009;SDS011;40903;51.638;7.528;2023-06-14T18:43:27;2.43;;;2.13;;
55009;SDS011;40903;51.638;7.528;2023-06-14T18:45:52;2.00;;;1.80;;
55009;SDS011;40903;51.638;7.528;2023-06-14T18:48:18;1.80;;;1.70;;
55009;SDS011;40903;51.638;7.528;2023-06-14T18:50:43;1.90;;;1.80;;
55009;SDS011;40903;51.638;7.528;2023-06-14T18:53:09;2.83;;;1.80;;
55009;SDS011;40903;51.638;7.528;2023-06-14T18:55:34;1.80;;;1.70;;
55009;SDS011;40903;51.638;7.528;2023-06-14T18:57:59;2.07;;;1.87;;
55009;SDS011;40903;51.638;7.528;2023-06-14T19:00:24;2.47;;;1.70;;
55009;SDS011;40903;51.638;7.528;2023-06-14T19:02:50;2.13;;;1.70;;
55009;SDS011;40903;51.638;7.528;2023-06-14T19:05:15;3.77;;;2.00;;
55009;SDS011;40903;51.638;7.528;2023-06-14T19:07:41;1.97;;;1.83;;
55009;SDS011;40903;51.638;7.528;2023-06-14T19:10:06;3.00;;;2.03;;
55009;SDS011;40903;51.638;7.528;2023-06-14T19:12:32;3.83;;;1.90;;
55009;SDS011;40903;51.638;7.528;2023-06-14T19:14:57;1.90;;;1.80;;
55009;SDS011;40903;51.638;7.528;2023-06-14T19:27:04;1.93;;;1.73;;
55009;SDS011;40903;51.638;7.528;2023-06-14T19:29:29;3.97;;;2.03;;
55009;SDS011;40903;51.638;7.528;2023-06-14T19:31:57;2.10;;;1.90;;
55009;SDS011;40903;51.638;7.528;2023-06-14T19:34:23;3.70;;;2.03;;
55009;SDS011;40903;51.638;7.528;2023-06-14T19:36:48;4.13;;;2.40;;
55009;SDS011;40903;51.638;7.528;2023-06-14T19:39:13;3.40;;;2.10;;
55009;SDS011;40903;51.638;7.528;2023-06-14T19:41:39;3.13;;;2.20;;
55009;SDS011;40903;51.638;7.528;2023-06-14T19:44:05;3.07;;;2.00;;
55009;SDS011;40903;51.638;7.528;2023-06-14T19:46:30;2.23;;;2.03;;
55009;SDS011;40903;51.638;7.528;2023-06-14T19:48:55;3.60;;;2.40;;
55009;SDS011;40903;51.638;7.528;2023-06-14T19:51:21;2.63;;;2.10;;
55009;SDS011;40903;51.638;7.528;2023-06-14T19:53:47;2.13;;;1.93;;
55009;SDS011;40903;51.638;7.528;2023-06-14T19:56:14;2.20;;;2.00;;
55009;SDS011;40903;51.638;7.528;2023-06-14T19:58:39;2.63;;;2.20;;
55009;SDS011;40903;51.638;7.528;2023-06-14T20:01:06;3.03;;;1.87;;
55009;SDS011;40903;51.638;7.528;2023-06-14T20:03:32;2.23;;;2.03;;
55009;SDS011;40903;51.638;7.528;2023-06-14T20:05:57;1.93;;;1.73;;
55009;SDS011;40903;51.638;7.528;2023-06-14T20:08:22;2.23;;;2.03;;